createdAt,value
2018-01-20T00:00:04.705Z,0
2018-01-20T00:00:44.677Z,0
2018-01-20T00:01:25.187Z,0
2018-01-20T00:02:05.779Z,0
2018-01-20T00:02:48.189Z,0
2018-01-20T00:03:29.815Z,0
2018-01-20T00:04:11.061Z,0
2018-01-20T00:04:51.564Z,0
2018-01-20T00:05:32.353Z,0
2018-01-20T00:06:12.891Z,0
2018-01-20T00:06:54.025Z,0
2018-01-20T00:07:34.421Z,0
2018-01-20T00:08:15.788Z,0
2018-01-20T00:08:56.245Z,0
2018-01-20T00:09:38.005Z,0
2018-01-20T00:10:19.092Z,0
2018-01-20T00:11:00.551Z,0
2018-01-20T00:11:41.041Z,0
2018-01-20T00:12:21.662Z,0
2018-01-20T00:13:03.826Z,0
2018-01-20T00:13:44.409Z,0
2018-01-20T00:14:26.202Z,0
2018-01-20T00:15:06.662Z,0
2018-01-20T00:15:47.182Z,0
2018-01-20T00:16:28.676Z,0
2018-01-20T00:17:09.213Z,0
2018-01-20T00:17:49.802Z,0
2018-01-20T00:18:31.888Z,0
2018-01-20T00:19:12.433Z,0
2018-01-20T00:19:52.939Z,0
2018-01-20T00:20:33.479Z,0
2018-01-20T00:21:13.986Z,0
2018-01-20T00:21:54.522Z,0
2018-01-20T00:22:35.127Z,0
2018-01-20T00:23:16.892Z,0
2018-01-20T00:23:57.641Z,0
2018-01-20T00:24:38.168Z,0
2018-01-20T00:25:18.803Z,0
2018-01-20T00:25:59.397Z,0
2018-01-20T00:26:39.936Z,0
2018-01-20T00:27:21.341Z,0
2018-01-20T00:28:02.530Z,0
2018-01-20T00:28:44.076Z,0
2018-01-20T00:29:24.579Z,0
2018-01-20T00:30:05.159Z,0
2018-01-20T00:30:46.357Z,0
2018-01-20T00:31:27.678Z,0
2018-01-20T00:32:09.249Z,0
2018-01-20T00:32:49.951Z,0
2018-01-20T00:33:32.459Z,0
2018-01-20T00:34:14.087Z,0
2018-01-20T00:34:54.640Z,0
2018-01-20T00:35:35.183Z,0
2018-01-20T00:36:16.646Z,0
2018-01-20T00:36:57.260Z,0
2018-01-20T00:37:38.661Z,0
2018-01-20T00:38:20.730Z,0
2018-01-20T00:39:04.013Z,0
2018-01-20T00:39:44.725Z,0
2018-01-20T00:40:25.232Z,0
2018-01-20T00:41:06.950Z,0
2018-01-20T00:41:47.732Z,0
2018-01-20T00:42:28.335Z,0
2018-01-20T00:43:08.851Z,0
2018-01-20T00:43:50.295Z,0
2018-01-20T00:44:30.846Z,0
2018-01-20T00:45:11.371Z,0
2018-01-20T00:45:51.991Z,0
2018-01-20T00:46:33.260Z,0
2018-01-20T00:47:15.238Z,0
2018-01-20T00:47:56.096Z,0
2018-01-20T00:48:36.908Z,0
2018-01-20T00:49:17.448Z,0
2018-01-20T00:49:58.011Z,0
2018-01-20T00:50:39.166Z,0
2018-01-20T00:51:20.219Z,0
2018-01-20T00:52:00.691Z,0
2018-01-20T00:52:42.118Z,0
2018-01-20T00:53:23.650Z,0
2018-01-20T00:54:04.789Z,0
2018-01-20T00:54:47.497Z,0
2018-01-20T00:55:28.072Z,0
2018-01-20T00:57:57.490Z,0
2018-01-20T00:58:38.130Z,0
2018-01-20T00:59:18.677Z,0
2018-01-20T00:59:59.212Z,0
2018-01-20T01:00:39.791Z,0
2018-01-20T01:01:20.320Z,0
2018-01-20T01:02:00.857Z,0
2018-01-20T01:02:41.383Z,0
2018-01-20T01:03:21.934Z,0
2018-01-20T01:04:02.501Z,0
2018-01-20T01:04:43.890Z,0
2018-01-20T01:05:24.819Z,0
2018-01-20T01:06:05.336Z,0
2018-01-20T01:06:45.940Z,0
2018-01-20T01:07:26.529Z,0
2018-01-20T01:08:07.234Z,0
2018-01-20T01:08:47.775Z,0
2018-01-20T01:09:28.441Z,0
2018-01-20T01:10:09.002Z,0
2018-01-20T01:10:49.610Z,0
2018-01-20T01:11:30.120Z,0
2018-01-20T01:12:10.849Z,0
2018-01-20T01:12:51.381Z,0
2018-01-20T01:13:31.863Z,0
2018-01-20T01:14:16.223Z,0
2018-01-20T01:15:00.581Z,0
2018-01-20T01:15:44.713Z,0
2018-01-20T01:16:25.335Z,0
2018-01-20T01:17:13.487Z,0
2018-01-20T01:17:57.862Z,0
2018-01-20T01:18:47.837Z,0
2018-01-20T01:19:28.407Z,0
2018-01-20T01:20:08.936Z,0
2018-01-20T01:20:50.295Z,0
2018-01-20T01:21:30.779Z,0
2018-01-20T01:22:11.317Z,0
2018-01-20T01:22:51.837Z,0
2018-01-20T01:23:32.395Z,0
2018-01-20T01:24:12.913Z,0
2018-01-20T01:24:53.488Z,0
2018-01-20T01:25:33.977Z,0
2018-01-20T01:26:14.511Z,0
2018-01-20T01:26:55.072Z,0
2018-01-20T01:27:35.617Z,0
2018-01-20T01:28:16.158Z,0
2018-01-20T01:28:56.646Z,0
2018-01-20T01:29:37.197Z,0
2018-01-20T01:30:17.727Z,0
2018-01-20T01:30:58.290Z,0
2018-01-20T01:31:38.807Z,0
2018-01-20T01:32:20.134Z,0
2018-01-20T01:32:59.886Z,0
2018-01-20T01:33:40.435Z,0
2018-01-20T01:34:21.813Z,0
2018-01-20T01:35:03.771Z,0
2018-01-20T01:35:44.395Z,0
2018-01-20T01:36:24.882Z,0
2018-01-20T01:37:05.456Z,0
2018-01-20T01:37:45.977Z,0
2018-01-20T01:38:26.498Z,0
2018-01-20T01:39:09.645Z,0
2018-01-20T01:40:35.844Z,0
2018-01-20T01:42:40.285Z,0
2018-01-20T01:43:22.838Z,0
2018-01-20T01:44:04.339Z,0
2018-01-20T01:44:45.018Z,0
2018-01-20T01:45:26.167Z,0
2018-01-20T01:46:07.178Z,0
2018-01-20T01:46:47.781Z,0
2018-01-20T01:47:28.279Z,0
2018-01-20T01:48:08.823Z,0
2018-01-20T01:50:56.058Z,0
2018-01-20T01:53:19.822Z,0
2018-01-20T01:54:06.429Z,0
2018-01-20T01:54:46.998Z,0
2018-01-20T01:55:29.320Z,0
2018-01-20T01:56:09.721Z,0
2018-01-20T01:56:51.363Z,0
2018-01-20T01:57:31.712Z,0
2018-01-20T01:58:12.253Z,0
2018-01-20T01:58:52.834Z,0
2018-01-20T01:59:33.365Z,0
2018-01-20T02:01:56.890Z,0
2018-01-20T02:02:37.361Z,0
2018-01-20T02:03:17.901Z,0
2018-01-20T02:03:58.640Z,0
2018-01-20T02:04:40.873Z,0
2018-01-20T02:05:21.359Z,0
2018-01-20T02:06:02.013Z,0
2018-01-20T02:06:42.573Z,0
2018-01-20T02:07:23.203Z,0
2018-01-20T02:08:03.950Z,0
2018-01-20T02:08:45.123Z,0
2018-01-20T02:09:25.845Z,0
2018-01-20T02:10:06.425Z,0
2018-01-20T02:10:46.905Z,0
2018-01-20T02:11:27.460Z,0
2018-01-20T02:12:08.007Z,0
2018-01-20T02:12:48.503Z,0
2018-01-20T02:13:30.118Z,0
2018-01-20T02:14:10.769Z,0
2018-01-20T02:14:51.099Z,0
2018-01-20T02:15:32.032Z,0
2018-01-20T02:16:12.597Z,0
2018-01-20T02:16:53.061Z,0
2018-01-20T02:17:33.624Z,0
2018-01-20T02:18:15.467Z,0
2018-01-20T02:18:55.991Z,0
2018-01-20T02:19:36.552Z,0
2018-01-20T02:20:17.087Z,0
2018-01-20T02:20:57.622Z,0
2018-01-20T02:21:38.129Z,0
2018-01-20T02:22:18.659Z,0
2018-01-20T02:23:00.329Z,0
2018-01-20T02:23:43.614Z,0
2018-01-20T02:24:26.583Z,0
2018-01-20T02:25:07.178Z,0
2018-01-20T02:25:47.701Z,0
2018-01-20T02:26:28.219Z,0
2018-01-20T02:27:10.111Z,0
2018-01-20T02:27:50.682Z,0
2018-01-20T02:28:31.259Z,0
2018-01-20T02:29:11.784Z,0
2018-01-20T02:29:52.407Z,0
2018-01-20T02:30:32.934Z,0
2018-01-20T02:31:13.464Z,0
2018-01-20T02:31:55.681Z,0
2018-01-20T02:32:36.112Z,0
2018-01-20T02:33:16.720Z,0
2018-01-20T02:33:57.237Z,0
2018-01-20T02:34:37.792Z,0
2018-01-20T02:35:18.305Z,0
2018-01-20T02:35:58.947Z,0
2018-01-20T02:36:40.723Z,0
2018-01-20T02:37:21.985Z,0
2018-01-20T02:38:02.501Z,0
2018-01-20T02:38:43.020Z,0
2018-01-20T02:39:23.763Z,0
2018-01-20T02:41:40.286Z,0
2018-01-20T02:42:21.642Z,0
2018-01-20T02:43:02.330Z,0
2018-01-20T02:43:42.845Z,0
2018-01-20T02:44:23.392Z,0
2018-01-20T02:45:03.953Z,0
2018-01-20T02:45:45.805Z,0
2018-01-20T02:46:26.424Z,0
2018-01-20T02:47:07.000Z,0
2018-01-20T02:47:47.543Z,0
2018-01-20T02:48:28.073Z,0
2018-01-20T02:49:08.593Z,0
2018-01-20T02:49:50.549Z,0
2018-01-20T02:50:31.983Z,0
2018-01-20T02:51:12.549Z,0
2018-01-20T02:51:53.101Z,0
2018-01-20T02:52:33.664Z,0
2018-01-20T02:53:15.764Z,0
2018-01-20T02:53:56.713Z,0
2018-01-20T02:54:37.304Z,0
2018-01-20T02:55:17.931Z,0
2018-01-20T02:55:58.509Z,0
2018-01-20T02:56:40.674Z,0
2018-01-20T02:57:21.354Z,0
2018-01-20T02:58:01.937Z,0
2018-01-20T02:58:42.534Z,0
2018-01-20T02:59:23.085Z,0
2018-01-20T03:00:03.610Z,0
2018-01-20T03:00:45.054Z,0
2018-01-20T03:01:25.649Z,0
2018-01-20T03:02:06.603Z,0
2018-01-20T03:02:47.127Z,0
2018-01-20T03:03:27.673Z,0
2018-01-20T03:04:08.303Z,0
2018-01-20T03:04:48.908Z,0
2018-01-20T03:05:32.024Z,0
2018-01-20T03:06:12.614Z,0
2018-01-20T03:06:53.217Z,0
2018-01-20T03:07:33.765Z,0
2018-01-20T03:08:15.883Z,0
2018-01-20T03:08:56.470Z,0
2018-01-20T03:09:37.113Z,0
2018-01-20T03:10:17.746Z,0
2018-01-20T03:10:58.333Z,0
2018-01-20T03:11:38.926Z,0
2018-01-20T03:12:19.531Z,0
2018-01-20T03:13:00.138Z,0
2018-01-20T03:13:40.682Z,0
2018-01-20T03:14:21.243Z,0
2018-01-20T03:15:01.836Z,0
2018-01-20T03:15:42.372Z,0
2018-01-20T03:16:22.888Z,0
2018-01-20T03:17:03.469Z,0
2018-01-20T03:17:44.100Z,0
2018-01-20T03:18:24.639Z,0
2018-01-20T03:19:05.190Z,0
2018-01-20T03:19:45.744Z,0
2018-01-20T03:20:26.311Z,0
2018-01-20T03:21:06.885Z,0
2018-01-20T03:21:47.428Z,0
2018-01-20T03:22:28.024Z,0
2018-01-20T03:23:08.611Z,0
2018-01-20T03:23:49.122Z,0
2018-01-20T03:24:29.664Z,0
2018-01-20T03:25:10.251Z,0
2018-01-20T03:25:50.852Z,0
2018-01-20T03:26:31.439Z,0
2018-01-20T03:27:13.029Z,0
2018-01-20T03:27:53.543Z,0
2018-01-20T03:28:34.142Z,0
2018-01-20T03:29:17.245Z,0
2018-01-20T03:29:57.760Z,0
2018-01-20T03:30:39.052Z,0
2018-01-20T03:31:18.968Z,0
2018-01-20T03:31:59.522Z,0
2018-01-20T03:32:40.101Z,0
2018-01-20T03:33:20.642Z,0
2018-01-20T03:34:01.161Z,0
2018-01-20T03:34:41.735Z,0
2018-01-20T03:35:22.423Z,0
2018-01-20T03:36:03.178Z,0
2018-01-20T03:36:43.601Z,0
2018-01-20T03:37:24.678Z,0
2018-01-20T03:38:05.260Z,0
2018-01-20T03:38:45.768Z,0
2018-01-20T03:39:26.368Z,0
2018-01-20T03:40:06.918Z,0
2018-01-20T03:40:47.458Z,0
2018-01-20T03:41:28.061Z,0
2018-01-20T03:42:09.625Z,0
2018-01-20T03:42:50.245Z,0
2018-01-20T03:43:30.805Z,0
2018-01-20T03:44:11.642Z,0
2018-01-20T03:44:52.202Z,0
2018-01-20T03:45:32.771Z,0
2018-01-20T03:46:14.184Z,0
2018-01-20T03:46:54.823Z,0
2018-01-20T03:47:37.073Z,0
2018-01-20T03:48:18.110Z,0
2018-01-20T03:48:58.716Z,0
2018-01-20T03:49:39.221Z,0
2018-01-20T03:50:19.738Z,0
2018-01-20T03:51:01.249Z,0
2018-01-20T03:51:41.892Z,0
2018-01-20T03:52:22.430Z,0
2018-01-20T03:53:03.042Z,0
2018-01-20T03:53:43.629Z,0
2018-01-20T03:54:24.174Z,0
2018-01-20T03:55:04.734Z,0
2018-01-20T03:55:46.061Z,0
2018-01-20T03:56:26.580Z,0
2018-01-20T03:57:07.763Z,0
2018-01-20T03:57:48.331Z,0
2018-01-20T03:58:28.883Z,0
2018-01-20T03:59:09.437Z,0
2018-01-20T03:59:50.026Z,0
2018-01-20T04:00:30.561Z,0
2018-01-20T04:01:11.141Z,0
2018-01-20T04:01:51.754Z,0
2018-01-20T04:02:32.351Z,0
2018-01-20T04:03:12.882Z,0
2018-01-20T04:03:53.499Z,0
2018-01-20T04:04:36.714Z,0
2018-01-20T04:05:17.320Z,0
2018-01-20T04:05:57.868Z,0
2018-01-20T04:06:38.499Z,0
2018-01-20T04:07:19.080Z,0
2018-01-20T04:07:59.664Z,0
2018-01-20T04:08:40.184Z,0
2018-01-20T04:09:20.732Z,0
2018-01-20T04:10:01.272Z,0
2018-01-20T04:10:41.964Z,0
2018-01-20T04:11:22.526Z,0
2018-01-20T04:12:03.074Z,0
2018-01-20T04:12:43.642Z,0
2018-01-20T04:13:24.217Z,0
2018-01-20T04:14:04.775Z,0
2018-01-20T04:14:45.293Z,0
2018-01-20T04:15:25.903Z,0
2018-01-20T04:16:06.435Z,0
2018-01-20T04:16:46.983Z,0
2018-01-20T04:17:27.562Z,0
2018-01-20T04:18:08.089Z,0
2018-01-20T04:18:48.671Z,0
2018-01-20T04:19:29.230Z,0
2018-01-20T04:20:09.819Z,0
2018-01-20T04:20:50.357Z,0
2018-01-20T04:21:30.862Z,0
2018-01-20T04:22:11.467Z,0
2018-01-20T04:22:52.041Z,0
2018-01-20T04:23:32.583Z,0
2018-01-20T04:24:13.142Z,0
2018-01-20T04:24:53.665Z,0
2018-01-20T04:25:34.214Z,0
2018-01-20T04:26:14.805Z,0
2018-01-20T04:26:55.347Z,0
2018-01-20T04:27:35.926Z,0
2018-01-20T04:28:16.517Z,0
2018-01-20T04:28:57.169Z,0
2018-01-20T04:29:37.645Z,0
2018-01-20T04:30:18.266Z,0
2018-01-20T04:30:58.872Z,0
2018-01-20T04:31:39.419Z,0
2018-01-20T04:32:19.970Z,0
2018-01-20T04:33:00.609Z,0
2018-01-20T04:33:41.181Z,0
2018-01-20T04:34:21.726Z,0
2018-01-20T04:35:02.339Z,0
2018-01-20T04:35:43.021Z,0
2018-01-20T04:36:23.443Z,0
2018-01-20T04:37:04.058Z,0
2018-01-20T04:37:44.603Z,0
2018-01-20T04:38:25.165Z,0
2018-01-20T04:39:05.753Z,0
2018-01-20T04:39:46.272Z,0
2018-01-20T04:40:26.862Z,0
2018-01-20T04:41:07.432Z,0
2018-01-20T04:41:48.011Z,0
2018-01-20T04:42:28.578Z,0
2018-01-20T04:43:09.134Z,0
2018-01-20T04:43:49.724Z,0
2018-01-20T04:44:30.286Z,0
2018-01-20T04:45:10.824Z,0
2018-01-20T04:45:51.389Z,0
2018-01-20T04:46:31.935Z,0
2018-01-20T04:47:12.614Z,0
2018-01-20T04:47:53.194Z,0
2018-01-20T04:48:33.778Z,0
2018-01-20T04:49:14.297Z,0
2018-01-20T04:49:54.931Z,0
2018-01-20T04:50:35.457Z,0
2018-01-20T04:51:16.040Z,0
2018-01-20T04:51:56.667Z,0
2018-01-20T04:52:37.167Z,0
2018-01-20T04:53:17.733Z,0
2018-01-20T04:53:58.320Z,0
2018-01-20T04:54:38.819Z,0
2018-01-20T04:55:19.405Z,0
2018-01-20T04:55:59.983Z,0
2018-01-20T04:56:40.541Z,0
2018-01-20T04:57:21.137Z,0
2018-01-20T04:58:01.746Z,0
2018-01-20T04:58:42.281Z,0
2018-01-20T04:59:22.889Z,0
2018-01-20T05:00:03.448Z,0
2018-01-20T05:00:44.033Z,0
2018-01-20T05:01:24.666Z,0
2018-01-20T05:02:05.201Z,0
2018-01-20T05:02:45.821Z,0
2018-01-20T05:03:26.336Z,0
2018-01-20T05:04:06.892Z,0
2018-01-20T05:04:47.480Z,0
2018-01-20T05:05:28.057Z,0
2018-01-20T05:06:08.584Z,0
2018-01-20T05:06:49.122Z,0
2018-01-20T05:07:29.696Z,0
2018-01-20T05:08:10.271Z,0
2018-01-20T05:08:50.814Z,0
2018-01-20T05:09:31.483Z,0
2018-01-20T05:10:12.124Z,0
2018-01-20T05:10:52.644Z,0
2018-01-20T05:11:33.214Z,0
2018-01-20T05:12:13.775Z,0
2018-01-20T05:12:54.367Z,0
2018-01-20T05:13:36.563Z,0
2018-01-20T05:14:17.189Z,0
2018-01-20T05:14:57.819Z,0
2018-01-20T05:15:38.300Z,0
2018-01-20T05:16:18.858Z,0
2018-01-20T05:16:59.491Z,0
2018-01-20T05:17:40.061Z,0
2018-01-20T05:18:20.710Z,0
2018-01-20T05:19:01.314Z,0
2018-01-20T05:19:41.819Z,0
2018-01-20T05:20:22.434Z,0
2018-01-20T05:21:03.008Z,0
2018-01-20T05:21:43.531Z,0
2018-01-20T05:22:24.063Z,0
2018-01-20T05:23:04.692Z,0
2018-01-20T05:23:45.248Z,0
2018-01-20T05:24:25.805Z,0
2018-01-20T05:25:06.366Z,0
2018-01-20T05:25:46.888Z,0
2018-01-20T05:26:27.497Z,0
2018-01-20T05:27:08.022Z,0
2018-01-20T05:27:48.552Z,0
2018-01-20T05:28:29.155Z,0
2018-01-20T05:29:09.789Z,0
2018-01-20T05:29:50.356Z,0
2018-01-20T05:30:30.890Z,0
2018-01-20T05:31:11.497Z,0
2018-01-20T05:31:52.054Z,0
2018-01-20T05:32:32.630Z,0
2018-01-20T05:33:13.146Z,0
2018-01-20T05:33:53.721Z,0
2018-01-20T05:34:34.337Z,0
2018-01-20T05:35:14.957Z,0
2018-01-20T05:35:55.505Z,0
2018-01-20T05:36:36.056Z,0
2018-01-20T05:37:16.736Z,0
2018-01-20T05:37:57.313Z,0
2018-01-20T05:38:37.886Z,0
2018-01-20T05:39:18.479Z,0
2018-01-20T05:39:58.967Z,0
2018-01-20T05:40:39.508Z,0
2018-01-20T05:41:20.097Z,0
2018-01-20T05:42:00.605Z,0
2018-01-20T05:42:41.188Z,0
2018-01-20T05:43:21.738Z,0
2018-01-20T05:44:02.313Z,0
2018-01-20T05:44:42.890Z,0
2018-01-20T05:45:23.490Z,0
2018-01-20T05:46:03.977Z,0
2018-01-20T05:46:44.561Z,0
2018-01-20T05:47:25.105Z,0
2018-01-20T05:48:05.787Z,0
2018-01-20T05:48:46.368Z,0
2018-01-20T05:49:26.979Z,0
2018-01-20T05:50:07.544Z,0
2018-01-20T05:50:48.163Z,0
2018-01-20T05:51:28.783Z,0
2018-01-20T05:52:09.280Z,0
2018-01-20T05:52:49.892Z,0
2018-01-20T05:53:30.412Z,0
2018-01-20T05:54:10.988Z,0
2018-01-20T05:54:51.529Z,0
2018-01-20T05:55:32.129Z,0
2018-01-20T05:56:12.689Z,0
2018-01-20T05:56:53.249Z,0
2018-01-20T05:57:33.815Z,0
2018-01-20T05:58:14.396Z,0
2018-01-20T05:58:55.008Z,0
2018-01-20T05:59:35.512Z,0
2018-01-20T06:00:16.066Z,0
2018-01-20T06:00:56.665Z,0
2018-01-20T06:01:37.230Z,0
2018-01-20T06:02:17.835Z,0
2018-01-20T06:02:58.450Z,0
2018-01-20T06:03:38.977Z,0
2018-01-20T06:04:19.557Z,0
2018-01-20T06:05:00.137Z,0
2018-01-20T06:05:40.700Z,0
2018-01-20T06:06:21.252Z,0
2018-01-20T06:07:01.857Z,0
2018-01-20T06:07:42.423Z,0
2018-01-20T06:08:22.971Z,0
2018-01-20T06:09:03.558Z,0
2018-01-20T06:09:44.124Z,0
2018-01-20T06:10:24.655Z,0
2018-01-20T06:11:05.266Z,0
2018-01-20T06:11:45.835Z,0
2018-01-20T06:12:26.354Z,0
2018-01-20T06:13:06.914Z,0
2018-01-20T06:13:47.493Z,0
2018-01-20T06:14:28.067Z,0
2018-01-20T06:15:08.638Z,0
2018-01-20T06:15:49.197Z,0
2018-01-20T06:16:29.733Z,0
2018-01-20T06:17:10.426Z,0
2018-01-20T06:17:51.078Z,0
2018-01-20T06:18:31.643Z,0
2018-01-20T06:19:12.231Z,0
2018-01-20T06:19:52.841Z,0
2018-01-20T06:20:33.402Z,0
2018-01-20T06:21:13.970Z,0
2018-01-20T06:21:54.503Z,0
2018-01-20T06:22:35.080Z,0
2018-01-20T06:23:15.680Z,0
2018-01-20T06:23:56.208Z,0
2018-01-20T06:24:36.804Z,0
2018-01-20T06:25:18.058Z,0
2018-01-20T06:25:58.734Z,0
2018-01-20T06:26:39.280Z,0
2018-01-20T06:27:19.873Z,0
2018-01-20T06:28:00.477Z,0
2018-01-20T06:28:41.051Z,0
2018-01-20T06:29:21.582Z,0
2018-01-20T06:30:02.156Z,0
2018-01-20T06:30:42.790Z,0
2018-01-20T06:31:23.290Z,0
2018-01-20T06:32:03.825Z,0
2018-01-20T06:32:44.364Z,0
2018-01-20T06:33:24.957Z,0
2018-01-20T06:34:05.480Z,0
2018-01-20T06:34:46.017Z,0
2018-01-20T06:35:26.619Z,0
2018-01-20T06:36:07.200Z,0
2018-01-20T06:36:47.751Z,0
2018-01-20T06:37:28.311Z,0
2018-01-20T06:38:08.884Z,0
2018-01-20T06:38:49.451Z,0
2018-01-20T06:39:30.062Z,0
2018-01-20T06:40:10.675Z,0
2018-01-20T06:40:51.313Z,0
2018-01-20T06:41:31.851Z,0
2018-01-20T06:42:12.430Z,0
2018-01-20T06:42:52.985Z,0
2018-01-20T06:43:33.581Z,0
2018-01-20T06:44:14.218Z,0
2018-01-20T06:44:54.767Z,0
2018-01-20T06:45:35.472Z,0
2018-01-20T06:46:16.066Z,4
2018-01-20T06:46:56.634Z,4
2018-01-20T06:47:37.168Z,0
2018-01-20T06:48:17.746Z,0
2018-01-20T06:48:58.343Z,0
2018-01-20T06:49:38.881Z,0
2018-01-20T06:50:19.520Z,4
2018-01-20T06:51:00.100Z,4
2018-01-20T06:51:40.687Z,0
2018-01-20T06:52:21.273Z,0
2018-01-20T06:53:01.902Z,4
2018-01-20T06:53:42.432Z,4
2018-01-20T06:54:23.114Z,4
2018-01-20T06:55:03.975Z,4
2018-01-20T06:55:44.285Z,4
2018-01-20T06:56:24.966Z,8
2018-01-20T06:57:05.445Z,4
2018-01-20T06:57:45.976Z,4
2018-01-20T06:58:26.578Z,12
2018-01-20T06:59:07.151Z,8
2018-01-20T07:00:39.742Z,8
2018-01-20T07:01:23.899Z,8
2018-01-20T07:02:03.636Z,12
2018-01-20T07:02:44.188Z,8
2018-01-20T07:03:24.870Z,16
2018-01-20T07:04:05.353Z,20
2018-01-20T07:04:45.885Z,20
2018-01-20T07:05:26.502Z,20
2018-01-20T07:06:07.071Z,24
2018-01-20T07:30:31.294Z,172
2018-01-20T07:31:11.911Z,172
2018-01-20T07:31:52.457Z,184
2018-01-20T07:32:33.074Z,192
2018-01-20T07:33:13.642Z,196
2018-01-20T07:33:54.180Z,212
2018-01-20T07:34:34.715Z,224
2018-01-20T07:35:17.187Z,232
2018-01-20T07:35:57.756Z,260
2018-01-20T07:36:38.341Z,276
2018-01-20T07:37:18.916Z,288
2018-01-20T07:37:59.558Z,288
2018-01-20T07:38:40.063Z,280
2018-01-20T07:39:20.652Z,268
2018-01-20T07:40:01.162Z,260
2018-01-20T07:40:41.735Z,252
2018-01-20T07:41:22.297Z,252
2018-01-20T07:42:02.840Z,252
2018-01-20T07:42:43.366Z,240
2018-01-20T07:43:23.900Z,236
2018-01-20T07:44:04.533Z,256
2018-01-20T07:44:45.092Z,288
2018-01-20T07:45:25.670Z,296
2018-01-20T07:46:06.245Z,272
2018-01-20T07:46:46.792Z,236
2018-01-20T07:47:27.320Z,212
2018-01-20T07:48:07.869Z,200
2018-01-20T07:48:48.419Z,212
2018-01-20T07:49:28.979Z,236
2018-01-20T07:50:09.510Z,272
2018-01-20T07:50:50.024Z,296
2018-01-20T07:51:30.568Z,296
2018-01-20T07:52:11.110Z,268
2018-01-20T07:52:51.648Z,256
2018-01-20T07:53:32.194Z,220
2018-01-20T07:54:13.391Z,204
2018-01-20T07:54:53.905Z,196
2018-01-20T07:55:34.491Z,204
2018-01-20T07:56:15.061Z,236
2018-01-20T07:56:55.573Z,268
2018-01-20T07:57:36.131Z,284
2018-01-20T07:58:16.697Z,296
2018-01-20T07:58:57.231Z,292
2018-01-20T07:59:37.823Z,296
2018-01-20T08:00:18.349Z,292
2018-01-20T08:00:58.985Z,284
2018-01-20T08:01:39.604Z,324
2018-01-20T08:02:20.109Z,332
2018-01-20T08:03:00.699Z,348
2018-01-20T08:03:41.291Z,384
2018-01-20T08:04:21.870Z,404
2018-01-20T08:05:02.503Z,416
2018-01-20T08:05:43.071Z,436
2018-01-20T08:06:23.785Z,492
2018-01-20T08:07:04.288Z,464
2018-01-20T08:07:44.764Z,440
2018-01-20T08:08:25.334Z,464
2018-01-20T08:09:05.909Z,520
2018-01-20T08:09:46.479Z,564
2018-01-20T08:10:27.055Z,596
2018-01-20T08:11:07.568Z,676
2018-01-20T08:11:48.144Z,804
2018-01-20T08:12:28.681Z,884
2018-01-20T08:13:09.214Z,928
2018-01-20T08:13:49.793Z,964
2018-01-20T08:14:30.368Z,960
2018-01-20T08:15:11.011Z,916
2018-01-20T08:15:51.531Z,876
2018-01-20T08:16:32.081Z,864
2018-01-20T08:17:12.640Z,856
2018-01-20T08:17:53.157Z,892
2018-01-20T08:18:33.717Z,928
2018-01-20T08:19:14.351Z,936
2018-01-20T08:19:54.858Z,952
2018-01-20T08:20:35.403Z,928
2018-01-20T08:21:15.970Z,948
2018-01-20T08:21:56.704Z,984
2018-01-20T08:22:37.208Z,1036
2018-01-20T08:23:17.765Z,1116
2018-01-20T08:23:58.335Z,1192
2018-01-20T08:24:38.946Z,1236
2018-01-20T08:25:19.482Z,1276
2018-01-20T08:26:00.027Z,1320
2018-01-20T08:26:40.570Z,1312
2018-01-20T08:27:22.871Z,1300
2018-01-20T08:28:03.429Z,1344
2018-01-20T08:28:44.095Z,1436
2018-01-20T08:29:24.528Z,1476
2018-01-20T08:30:05.104Z,1512
2018-01-20T08:30:45.897Z,1540
2018-01-20T08:31:26.475Z,1592
2018-01-20T08:32:07.045Z,1620
2018-01-20T08:32:47.576Z,1632
2018-01-20T08:33:28.166Z,1648
2018-01-20T08:34:08.657Z,1656
2018-01-20T08:34:49.468Z,1624
2018-01-20T08:35:30.040Z,1548
2018-01-20T08:36:10.589Z,1464
2018-01-20T08:36:51.152Z,1400
2018-01-20T08:37:31.709Z,1340
2018-01-20T08:38:12.227Z,1296
2018-01-20T08:38:52.785Z,1368
2018-01-20T08:39:35.042Z,1484
2018-01-20T08:40:15.629Z,1588
2018-01-20T08:40:56.200Z,1704
2018-01-20T08:41:37.388Z,1720
2018-01-20T08:42:19.634Z,1744
2018-01-20T08:43:00.192Z,1732
2018-01-20T08:43:40.752Z,1732
2018-01-20T08:44:21.344Z,1804
2018-01-20T08:45:01.945Z,1892
2018-01-20T08:45:42.589Z,1944
2018-01-20T08:46:23.100Z,1952
2018-01-20T08:47:03.795Z,1988
2018-01-20T08:47:44.320Z,2080
2018-01-20T08:48:24.936Z,2176
2018-01-20T08:49:05.464Z,2236
2018-01-20T08:49:46.050Z,2292
2018-01-20T08:50:26.632Z,2320
2018-01-20T08:51:08.130Z,2320
2018-01-20T08:51:47.846Z,2284
2018-01-20T08:52:28.420Z,2244
2018-01-20T08:53:08.981Z,2208
2018-01-20T08:53:49.683Z,2172
2018-01-20T08:54:30.136Z,2140
2018-01-20T08:55:10.758Z,2000
2018-01-20T08:55:51.351Z,1772
2018-01-20T08:56:31.922Z,1636
2018-01-20T08:57:12.577Z,1596
2018-01-20T08:57:53.116Z,1584
2018-01-20T08:58:33.697Z,1608
2018-01-20T08:59:14.291Z,1632
2018-01-20T08:59:54.918Z,1660
2018-01-20T09:00:35.579Z,1692
2018-01-20T09:01:18.213Z,1756
2018-01-20T09:01:58.774Z,1816
2018-01-20T09:02:39.477Z,1840
2018-01-20T09:03:20.017Z,1848
2018-01-20T09:04:00.617Z,1776
2018-01-20T09:04:41.194Z,1572
2018-01-20T09:05:23.507Z,1468
2018-01-20T09:06:04.169Z,1340
2018-01-20T09:06:44.677Z,1200
2018-01-20T09:07:25.310Z,1096
2018-01-20T09:08:05.936Z,996
2018-01-20T09:08:46.483Z,852
2018-01-20T09:09:27.088Z,736
2018-01-20T09:10:07.647Z,620
2018-01-20T09:10:48.279Z,564
2018-01-20T09:11:28.824Z,536
2018-01-20T09:12:09.428Z,544
2018-01-20T09:12:49.971Z,564
2018-01-20T09:13:30.523Z,588
2018-01-20T09:14:11.076Z,616
2018-01-20T09:14:51.687Z,620
2018-01-20T09:15:32.228Z,668
2018-01-20T09:16:12.816Z,716
2018-01-20T09:16:53.372Z,744
2018-01-20T09:18:53.961Z,732
2018-01-20T09:19:34.556Z,728
2018-01-20T09:20:15.037Z,732
2018-01-20T09:20:55.609Z,716
2018-01-20T09:21:36.194Z,668
2018-01-20T09:22:16.870Z,756
2018-01-20T09:22:57.285Z,736
2018-01-20T09:23:37.788Z,816
2018-01-20T09:24:18.556Z,828
2018-01-20T09:24:59.070Z,848
2018-01-20T09:25:39.581Z,872
2018-01-20T09:26:20.087Z,872
2018-01-20T09:27:00.666Z,892
2018-01-20T09:27:41.188Z,1000
2018-01-20T09:28:21.693Z,980
2018-01-20T09:29:02.246Z,976
2018-01-20T09:29:42.819Z,1020
2018-01-20T09:30:23.354Z,1068
2018-01-20T09:31:03.933Z,1040
2018-01-20T09:31:44.510Z,1016
2018-01-20T09:32:25.013Z,1064
2018-01-20T09:33:05.546Z,1100
2018-01-20T09:33:46.112Z,1148
2018-01-20T09:34:26.666Z,1108
2018-01-20T09:35:07.383Z,968
2018-01-20T09:35:47.927Z,980
2018-01-20T09:36:28.473Z,936
2018-01-20T09:37:09.026Z,860
2018-01-20T09:37:49.653Z,996
2018-01-20T09:38:30.110Z,876
2018-01-20T09:39:10.815Z,780
2018-01-20T09:39:51.315Z,752
2018-01-20T09:40:31.865Z,748
2018-01-20T09:41:12.370Z,720
2018-01-20T09:41:52.949Z,772
2018-01-20T09:42:33.514Z,824
2018-01-20T09:43:14.103Z,824
2018-01-20T09:43:54.665Z,916
2018-01-20T09:44:35.184Z,924
2018-01-20T09:45:15.758Z,888
2018-01-20T09:45:56.285Z,900
2018-01-20T09:46:37.011Z,932
2018-01-20T09:47:17.544Z,984
2018-01-20T09:47:58.120Z,1024
2018-01-20T09:48:38.700Z,944
2018-01-20T09:49:19.221Z,1092
2018-01-20T09:49:59.867Z,1020
2018-01-20T09:50:40.435Z,996
2018-01-20T09:51:21.031Z,1004
2018-01-20T09:52:01.577Z,1024
2018-01-20T09:52:42.727Z,1072
2018-01-20T09:53:23.070Z,1168
2018-01-20T09:54:03.707Z,1148
2018-01-20T09:54:44.171Z,1128
2018-01-20T09:55:24.713Z,1200
2018-01-20T09:56:05.786Z,1180
2018-01-20T09:56:46.357Z,1180
2018-01-20T09:57:26.915Z,1200
2018-01-20T09:58:07.542Z,1156
2018-01-20T09:58:48.020Z,1136
2018-01-20T09:59:28.632Z,1156
2018-01-20T10:00:09.121Z,1100
2018-01-20T10:00:49.637Z,1100
2018-01-20T10:01:30.180Z,1168
2018-01-20T10:02:10.768Z,1200
2018-01-20T10:02:51.306Z,1136
2018-01-20T10:03:31.959Z,1196
2018-01-20T10:04:12.448Z,1212
2018-01-20T10:04:53.010Z,1272
2018-01-20T10:05:33.684Z,1324
2018-01-20T10:06:14.176Z,1348
2018-01-20T10:06:54.860Z,1380
2018-01-20T10:07:35.424Z,1436
2018-01-20T10:08:15.952Z,1484
2018-01-20T10:08:56.542Z,1464
2018-01-20T10:09:37.153Z,1420
2018-01-20T10:10:17.640Z,1432
2018-01-20T10:10:58.217Z,1524
2018-01-20T10:11:38.766Z,1648
2018-01-20T10:12:19.272Z,1728
2018-01-20T10:12:59.804Z,1752
2018-01-20T10:13:40.383Z,1748
2018-01-20T10:14:20.904Z,1832
2018-01-20T10:15:01.446Z,2004
2018-01-20T10:15:41.978Z,2064
2018-01-20T10:16:22.524Z,2064
2018-01-20T10:17:03.110Z,2064
2018-01-20T10:17:43.661Z,2108
2018-01-20T10:18:24.217Z,2132
2018-01-20T10:19:04.717Z,2156
2018-01-20T10:19:45.291Z,2076
2018-01-20T10:20:25.838Z,2060
2018-01-20T10:21:06.448Z,2128
2018-01-20T10:21:47.028Z,2168
2018-01-20T10:22:27.625Z,2224
2018-01-20T10:23:08.170Z,2288